sensor_id;sensor_type;location;lat;lon;timestamp;P1;durP1;ratioP1;P2;durP2;ratioP2
49366;SDS011;35245;52.026;8.540;2023-04-15T00:01:35;8.85;;;5.70;;
49366;SDS011;35245;52.026;8.540;2023-04-15T00:04:03;10.18;;;6.30;;
49366;SDS011;35245;52.026;8.540;2023-04-15T00:06:29;10.75;;;6.47;;
49366;SDS011;35245;52.026;8.540;2023-04-15T00:08:56;9.35;;;6.57;;
49366;SDS011;35245;52.026;8.540;2023-04-15T00:11:25;12.32;;;6.97;;
49366;SDS011;35245;52.026;8.540;2023-04-15T00:13:51;12.55;;;6.85;;
49366;SDS011;35245;52.026;8.540;2023-04-15T00:16:18;10.18;;;6.28;;
49366;SDS011;35245;52.026;8.540;2023-04-15T00:18:45;11.38;;;6.28;;
49366;SDS011;35245;52.026;8.540;2023-04-15T00:21:12;9.73;;;7.32;;
49366;SDS011;35245;52.026;8.540;2023-04-15T00:23:39;12.30;;;6.80;;
49366;SDS011;35245;52.026;8.540;2023-04-15T00:26:06;10.18;;;7.38;;
49366;SDS011;35245;52.026;8.540;2023-04-15T00:28:35;10.77;;;7.15;;
49366;SDS011;35245;52.026;8.540;2023-04-15T00:31:02;12.00;;;7.22;;
49366;SDS011;35245;52.026;8.540;2023-04-15T00:33:29;8.82;;;6.15;;
49366;SDS011;35245;52.026;8.540;2023-04-15T00:35:56;11.65;;;7.18;;
49366;SDS011;35245;52.026;8.540;2023-04-15T00:38:23;10.93;;;7.13;;
49366;SDS011;35245;52.026;8.540;2023-04-15T00:40:50;9.07;;;6.72;;
49366;SDS011;35245;52.026;8.540;2023-04-15T00:43:17;12.63;;;8.55;;
49366;SDS011;35245;52.026;8.540;2023-04-15T00:45:46;9.68;;;6.75;;
49366;SDS011;35245;52.026;8.540;2023-04-15T00:48:13;10.70;;;7.43;;
49366;SDS011;35245;52.026;8.540;2023-04-15T00:50:40;11.90;;;7.25;;
49366;SDS011;35245;52.026;8.540;2023-04-15T00:53:07;10.10;;;6.35;;
49366;SDS011;35245;52.026;8.540;2023-04-15T00:55:34;12.07;;;7.07;;
49366;SDS011;35245;52.026;8.540;2023-04-15T00:58:01;10.05;;;7.00;;
49366;SDS011;35245;52.026;8.540;2023-04-15T01:00:28;10.20;;;7.25;;
49366;SDS011;35245;52.026;8.540;2023-04-15T01:02:56;11.52;;;7.10;;
49366;SDS011;35245;52.026;8.540;2023-04-15T01:05:23;13.63;;;7.97;;
49366;SDS011;35245;52.026;8.540;2023-04-15T01:07:51;12.00;;;7.65;;
49366;SDS011;35245;52.026;8.540;2023-04-15T01:10:18;11.25;;;8.25;;
49366;SDS011;35245;52.026;8.540;2023-04-15T01:12:45;9.90;;;7.10;;
49366;SDS011;35245;52.026;8.540;2023-04-15T01:15:12;10.45;;;7.65;;
49366;SDS011;35245;52.026;8.540;2023-04-15T01:17:40;12.15;;;8.55;;
49366;SDS011;35245;52.026;8.540;2023-04-15T01:20:09;11.68;;;7.53;;
49366;SDS011;35245;52.026;8.540;2023-04-15T01:22:36;11.73;;;8.57;;
49366;SDS011;35245;52.026;8.540;2023-04-15T01:25:04;11.75;;;9.02;;
49366;SDS011;35245;52.026;8.540;2023-04-15T01:27:33;10.60;;;8.40;;
49366;SDS011;35245;52.026;8.540;2023-04-15T01:30:01;12.38;;;8.60;;
49366;SDS011;35245;52.026;8.540;2023-04-15T01:32:29;10.25;;;8.18;;
49366;SDS011;35245;52.026;8.540;2023-04-15T01:34:57;12.23;;;8.68;;
49366;SDS011;35245;52.026;8.540;2023-04-15T01:37:24;11.25;;;8.18;;
49366;SDS011;35245;52.026;8.540;2023-04-15T01:39:51;13.27;;;8.75;;
49366;SDS011;35245;52.026;8.540;2023-04-15T01:42:20;12.52;;;8.82;;
49366;SDS011;35245;52.026;8.540;2023-04-15T01:44:48;16.58;;;10.95;;
49366;SDS011;35245;52.026;8.540;2023-04-15T01:47:16;12.10;;;8.93;;
49366;SDS011;35245;52.026;8.540;2023-04-15T01:49:42;10.43;;;7.78;;
49366;SDS011;35245;52.026;8.540;2023-04-15T01:52:09;13.35;;;9.70;;
49366;SDS011;35245;52.026;8.540;2023-04-15T01:54:36;14.20;;;8.48;;
49366;SDS011;35245;52.026;8.540;2023-04-15T01:57:03;13.50;;;8.90;;
49366;SDS011;35245;52.026;8.540;2023-04-15T01:59:30;13.45;;;9.38;;
49366;SDS011;35245;52.026;8.540;2023-04-15T02:01:58;13.10;;;9.38;;
49366;SDS011;35245;52.026;8.540;2023-04-15T02:04:25;13.55;;;9.95;;
49366;SDS011;35245;52.026;8.540;2023-04-15T02:06:52;12.05;;;8.85;;
49366;SDS011;35245;52.026;8.540;2023-04-15T02:09:19;11.57;;;8.57;;
49366;SDS011;35245;52.026;8.540;2023-04-15T02:11:46;12.30;;;9.05;;
49366;SDS011;35245;52.026;8.540;2023-04-15T02:14:13;9.70;;;7.68;;
49366;SDS011;35245;52.026;8.540;2023-04-15T02:16:40;14.38;;;9.75;;
49366;SDS011;35245;52.026;8.540;2023-04-15T02:19:09;15.75;;;9.60;;
49366;SDS011;35245;52.026;8.540;2023-04-15T02:21:36;13.35;;;9.18;;
49366;SDS011;35245;52.026;8.540;2023-04-15T02:24:04;14.07;;;9.27;;
49366;SDS011;35245;52.026;8.540;2023-04-15T02:26:31;14.98;;;9.25;;
49366;SDS011;35245;52.026;8.540;2023-04-15T02:28:58;12.80;;;9.27;;
49366;SDS011;35245;52.026;8.540;2023-04-15T02:31:25;14.45;;;10.50;;
49366;SDS011;35245;52.026;8.540;2023-04-15T02:33:52;15.15;;;11.07;;
49366;SDS011;35245;52.026;8.540;2023-04-15T02:36:20;14.00;;;9.90;;
49366;SDS011;35245;52.026;8.540;2023-04-15T02:38:47;14.77;;;10.45;;
49366;SDS011;35245;52.026;8.540;2023-04-15T02:41:14;14.90;;;10.43;;
49366;SDS011;35245;52.026;8.540;2023-04-15T02:43:41;14.95;;;10.20;;
49366;SDS011;35245;52.026;8.540;2023-04-15T02:46:08;14.48;;;10.85;;
49366;SDS011;35245;52.026;8.540;2023-04-15T02:48:38;12.82;;;10.13;;
49366;SDS011;35245;52.026;8.540;2023-04-15T02:51:12;15.07;;;10.00;;
49366;SDS011;35245;52.026;8.540;2023-04-15T02:53:41;12.80;;;9.10;;
49366;SDS011;35245;52.026;8.540;2023-04-15T02:56:08;12.63;;;9.52;;
49366;SDS011;35245;52.026;8.540;2023-04-15T02:58:36;12.68;;;9.27;;
49366;SDS011;35245;52.026;8.540;2023-04-15T03:01:03;14.02;;;10.10;;
49366;SDS011;35245;52.026;8.540;2023-04-15T03:03:29;13.48;;;9.98;;
49366;SDS011;35245;52.026;8.540;2023-04-15T03:05:56;13.57;;;9.45;;
49366;SDS011;35245;52.026;8.540;2023-04-15T03:08:23;12.80;;;9.43;;
49366;SDS011;35245;52.026;8.540;2023-04-15T03:10:52;13.63;;;10.10;;
49366;SDS011;35245;52.026;8.540;2023-04-15T03:13:19;13.38;;;10.10;;
49366;SDS011;35245;52.026;8.540;2023-04-15T03:15:46;13.10;;;10.35;;
49366;SDS011;35245;52.026;8.540;2023-04-15T03:18:13;14.25;;;10.23;;
49366;SDS011;35245;52.026;8.540;2023-04-15T03:20:40;14.00;;;10.73;;
49366;SDS011;35245;52.026;8.540;2023-04-15T03:23:06;14.70;;;10.32;;
49366;SDS011;35245;52.026;8.540;2023-04-15T03:25:33;15.02;;;10.30;;
49366;SDS011;35245;52.026;8.540;2023-04-15T03:28:02;16.17;;;11.15;;
49366;SDS011;35245;52.026;8.540;2023-04-15T03:30:30;12.63;;;10.32;;
49366;SDS011;35245;52.026;8.540;2023-04-15T03:32:57;14.52;;;9.82;;
49366;SDS011;35245;52.026;8.540;2023-04-15T03:35:23;13.02;;;9.90;;
49366;SDS011;35245;52.026;8.540;2023-04-15T03:37:50;12.93;;;9.57;;
49366;SDS011;35245;52.026;8.540;2023-04-15T03:40:17;13.75;;;9.35;;
49366;SDS011;35245;52.026;8.540;2023-04-15T03:42:46;13.93;;;10.60;;
49366;SDS011;35245;52.026;8.540;2023-04-15T03:45:14;13.63;;;10.52;;
49366;SDS011;35245;52.026;8.540;2023-04-15T03:47:41;14.40;;;9.85;;
49366;SDS011;35245;52.026;8.540;2023-04-15T03:50:08;14.15;;;9.45;;
49366;SDS011;35245;52.026;8.540;2023-04-15T03:52:35;15.48;;;10.75;;
49366;SDS011;35245;52.026;8.540;2023-04-15T03:55:02;13.30;;;10.18;;
49366;SDS011;35245;52.026;8.540;2023-04-15T03:57:29;14.38;;;9.77;;
49366;SDS011;35245;52.026;8.540;2023-04-15T03:59:57;13.70;;;10.10;;
49366;SDS011;35245;52.026;8.540;2023-04-15T04:02:25;12.90;;;10.38;;
49366;SDS011;35245;52.026;8.540;2023-04-15T04:04:52;12.63;;;9.68;;
49366;SDS011;35245;52.026;8.540;2023-04-15T04:07:19;12.77;;;10.18;;
49366;SDS011;35245;52.026;8.540;2023-04-15T04:09:46;15.23;;;10.35;;
49366;SDS011;35245;52.026;8.540;2023-04-15T04:12:13;12.95;;;10.02;;
49366;SDS011;35245;52.026;8.540;2023-04-15T04:14:39;13.13;;;10.05;;
49366;SDS011;35245;52.026;8.540;2023-04-15T04:17:06;15.90;;;10.98;;
49366;SDS011;35245;52.026;8.540;2023-04-15T04:19:35;14.57;;;10.60;;
49366;SDS011;35245;52.026;8.540;2023-04-15T04:22:01;14.65;;;10.77;;
49366;SDS011;35245;52.026;8.540;2023-04-15T04:24:28;15.52;;;11.02;;
49366;SDS011;35245;52.026;8.540;2023-04-15T04:26:55;12.73;;;9.73;;
49366;SDS011;35245;52.026;8.540;2023-04-15T04:29:22;13.27;;;10.32;;
49366;SDS011;35245;52.026;8.540;2023-04-15T04:31:49;14.88;;;10.35;;
49366;SDS011;35245;52.026;8.540;2023-04-15T04:34:16;16.65;;;11.25;;
49366;SDS011;35245;52.026;8.540;2023-04-15T04:36:44;13.82;;;10.40;;
49366;SDS011;35245;52.026;8.540;2023-04-15T04:39:11;13.85;;;10.38;;
49366;SDS011;35245;52.026;8.540;2023-04-15T04:41:38;16.25;;;10.95;;
49366;SDS011;35245;52.026;8.540;2023-04-15T04:44:05;14.07;;;10.27;;
49366;SDS011;35245;52.026;8.540;2023-04-15T04:46:32;16.58;;;11.27;;
49366;SDS011;35245;52.026;8.540;2023-04-15T04:48:59;16.13;;;10.52;;
49366;SDS011;35245;52.026;8.540;2023-04-15T04:51:25;15.13;;;11.07;;
49366;SDS011;35245;52.026;8.540;2023-04-15T04:53:54;17.83;;;11.73;;
49366;SDS011;35245;52.026;8.540;2023-04-15T04:56:21;15.82;;;10.93;;
49366;SDS011;35245;52.026;8.540;2023-04-15T04:58:48;13.57;;;10.43;;
49366;SDS011;35245;52.026;8.540;2023-04-15T05:01:15;15.48;;;11.70;;
49366;SDS011;35245;52.026;8.540;2023-04-15T05:03:42;16.30;;;11.65;;
49366;SDS011;35245;52.026;8.540;2023-04-15T05:06:09;17.75;;;12.02;;
49366;SDS011;35245;52.026;8.540;2023-04-15T05:08:36;14.63;;;11.15;;
49366;SDS011;35245;52.026;8.540;2023-04-15T05:11:06;15.80;;;11.60;;
49366;SDS011;35245;52.026;8.540;2023-04-15T05:13:33;15.05;;;11.40;;
49366;SDS011;35245;52.026;8.540;2023-04-15T05:16:02;18.15;;;11.98;;
49366;SDS011;35245;52.026;8.540;2023-04-15T05:18:30;14.25;;;10.65;;
49366;SDS011;35245;52.026;8.540;2023-04-15T05:20:57;16.08;;;11.30;;
49366;SDS011;35245;52.026;8.540;2023-04-15T05:23:24;16.70;;;12.00;;
49366;SDS011;35245;52.026;8.540;2023-04-15T05:25:51;17.80;;;11.85;;
49366;SDS011;35245;52.026;8.540;2023-04-15T05:28:19;15.98;;;11.38;;
49366;SDS011;35245;52.026;8.540;2023-04-15T05:30:46;15.20;;;11.20;;
49366;SDS011;35245;52.026;8.540;2023-04-15T05:33:13;16.58;;;11.80;;
49366;SDS011;35245;52.026;8.540;2023-04-15T05:35:40;16.58;;;11.73;;
49366;SDS011;35245;52.026;8.540;2023-04-15T05:38:07;15.90;;;12.00;;
49366;SDS011;35245;52.026;8.540;2023-04-15T05:40:34;15.85;;;11.85;;
49366;SDS011;35245;52.026;8.540;2023-04-15T05:43:01;15.50;;;12.35;;
49366;SDS011;35245;52.026;8.540;2023-04-15T05:45:30;15.18;;;12.05;;
49366;SDS011;35245;52.026;8.540;2023-04-15T05:47:57;14.05;;;10.77;;
49366;SDS011;35245;52.026;8.540;2023-04-15T05:50:24;20.38;;;10.93;;
49366;SDS011;35245;52.026;8.540;2023-04-15T05:52:51;16.95;;;11.70;;
49366;SDS011;35245;52.026;8.540;2023-04-15T05:55:18;16.17;;;11.20;;
49366;SDS011;35245;52.026;8.540;2023-04-15T05:57:45;14.90;;;10.93;;
49366;SDS011;35245;52.026;8.540;2023-04-15T06:00:12;15.55;;;11.45;;
49366;SDS011;35245;52.026;8.540;2023-04-15T06:02:41;15.90;;;11.25;;
49366;SDS011;35245;52.026;8.540;2023-04-15T06:05:08;16.55;;;11.48;;
49366;SDS011;35245;52.026;8.540;2023-04-15T06:07:36;15.43;;;11.82;;
49366;SDS011;35245;52.026;8.540;2023-04-15T06:10:03;17.80;;;11.70;;
49366;SDS011;35245;52.026;8.540;2023-04-15T06:12:32;17.27;;;12.25;;
49366;SDS011;35245;52.026;8.540;2023-04-15T06:14:59;17.75;;;12.07;;
49366;SDS011;35245;52.026;8.540;2023-04-15T06:17:25;14.60;;;11.45;;
49366;SDS011;35245;52.026;8.540;2023-04-15T06:19:54;14.57;;;11.68;;
49366;SDS011;35245;52.026;8.540;2023-04-15T06:22:21;15.95;;;12.55;;
49366;SDS011;35245;52.026;8.540;2023-04-15T06:24:48;16.42;;;12.77;;
49366;SDS011;35245;52.026;8.540;2023-04-15T06:27:15;16.20;;;12.30;;
49366;SDS011;35245;52.026;8.540;2023-04-15T06:29:42;17.63;;;12.70;;
49366;SDS011;35245;52.026;8.540;2023-04-15T06:32:09;19.52;;;12.88;;
49366;SDS011;35245;52.026;8.540;2023-04-15T06:34:37;17.52;;;12.85;;
49366;SDS011;35245;52.026;8.540;2023-04-15T06:37:05;19.45;;;13.90;;
49366;SDS011;35245;52.026;8.540;2023-04-15T06:39:34;18.67;;;13.48;;
49366;SDS011;35245;52.026;8.540;2023-04-15T06:42:01;23.98;;;14.45;;
49366;SDS011;35245;52.026;8.540;2023-04-15T06:44:29;19.67;;;14.20;;
49366;SDS011;35245;52.026;8.540;2023-04-15T06:46:56;19.40;;;14.30;;
49366;SDS011;35245;52.026;8.540;2023-04-15T06:49:23;18.42;;;13.45;;
49366;SDS011;35245;52.026;8.540;2023-04-15T06:51:50;20.77;;;15.77;;
49366;SDS011;35245;52.026;8.540;2023-04-15T06:54:19;23.42;;;17.05;;
49366;SDS011;35245;52.026;8.540;2023-04-15T06:56:46;23.15;;;17.23;;
49366;SDS011;35245;52.026;8.540;2023-04-15T06:59:13;28.80;;;21.35;;
49366;SDS011;35245;52.026;8.540;2023-04-15T07:01:40;31.75;;;20.67;;
49366;SDS011;35245;52.026;8.540;2023-04-15T07:04:07;29.13;;;22.10;;
49366;SDS011;35245;52.026;8.540;2023-04-15T07:06:35;34.38;;;24.17;;
49366;SDS011;35245;52.026;8.540;2023-04-15T07:09:02;34.17;;;24.70;;
49366;SDS011;35245;52.026;8.540;2023-04-15T07:11:30;40.03;;;28.23;;
49366;SDS011;35245;52.026;8.540;2023-04-15T07:13:57;39.72;;;28.73;;
49366;SDS011;35245;52.026;8.540;2023-04-15T07:16:24;42.60;;;28.77;;
49366;SDS011;35245;52.026;8.540;2023-04-15T07:18:51;39.65;;;28.08;;
49366;SDS011;35245;52.026;8.540;2023-04-15T07:21:19;41.40;;;28.08;;
49366;SDS011;35245;52.026;8.540;2023-04-15T07:23:46;37.00;;;25.45;;
49366;SDS011;35245;52.026;8.540;2023-04-15T07:26:13;39.53;;;26.75;;
49366;SDS011;35245;52.026;8.540;2023-04-15T07:28:41;35.80;;;24.13;;
49366;SDS011;35245;52.026;8.540;2023-04-15T07:31:10;41.55;;;25.70;;
49366;SDS011;35245;52.026;8.540;2023-04-15T07:33:37;33.25;;;22.60;;
49366;SDS011;35245;52.026;8.540;2023-04-15T07:36:04;28.05;;;18.88;;
49366;SDS011;35245;52.026;8.540;2023-04-15T07:38:31;24.45;;;17.73;;
49366;SDS011;35245;52.026;8.540;2023-04-15T07:40:58;27.08;;;18.25;;
49366;SDS011;35245;52.026;8.540;2023-04-15T07:43:25;24.13;;;16.50;;
49366;SDS011;35245;52.026;8.540;2023-04-15T07:45:54;25.65;;;17.23;;
49366;SDS011;35245;52.026;8.540;2023-04-15T07:48:21;23.45;;;15.23;;
49366;SDS011;35245;52.026;8.540;2023-04-15T07:50:48;19.42;;;14.88;;
49366;SDS011;35245;52.026;8.540;2023-04-15T07:53:15;23.55;;;15.60;;
49366;SDS011;35245;52.026;8.540;2023-04-15T07:55:42;22.80;;;15.73;;
49366;SDS011;35245;52.026;8.540;2023-04-15T07:58:08;20.85;;;14.55;;
49366;SDS011;35245;52.026;8.540;2023-04-15T08:00:35;20.55;;;13.27;;
49366;SDS011;35245;52.026;8.540;2023-04-15T08:03:04;21.98;;;13.35;;
49366;SDS011;35245;52.026;8.540;2023-04-15T08:05:31;20.83;;;14.65;;
49366;SDS011;35245;52.026;8.540;2023-04-15T08:07:58;18.83;;;13.27;;
49366;SDS011;35245;52.026;8.540;2023-04-15T08:10:25;20.88;;;14.27;;
49366;SDS011;35245;52.026;8.540;2023-04-15T08:12:53;17.17;;;12.50;;
49366;SDS011;35245;52.026;8.540;2023-04-15T08:15:20;17.17;;;12.20;;
49366;SDS011;35245;52.026;8.540;2023-04-15T08:17:47;16.05;;;12.00;;
49366;SDS011;35245;52.026;8.540;2023-04-15T08:20:16;16.25;;;12.38;;
49366;SDS011;35245;52.026;8.540;2023-04-15T08:22:42;16.92;;;12.52;;
49366;SDS011;35245;52.026;8.540;2023-04-15T08:25:10;17.25;;;12.73;;
49366;SDS011;35245;52.026;8.540;2023-04-15T08:27:37;16.70;;;12.23;;
49366;SDS011;35245;52.026;8.540;2023-04-15T08:30:04;16.33;;;11.48;;
49366;SDS011;35245;52.026;8.540;2023-04-15T08:32:32;17.90;;;12.30;;
49366;SDS011;35245;52.026;8.540;2023-04-15T08:34:59;16.67;;;11.77;;
49366;SDS011;35245;52.026;8.540;2023-04-15T08:37:28;18.15;;;12.00;;
49366;SDS011;35245;52.026;8.540;2023-04-15T08:39:55;17.45;;;13.05;;
49366;SDS011;35245;52.026;8.540;2023-04-15T08:42:22;16.02;;;12.43;;
49366;SDS011;35245;52.026;8.540;2023-04-15T08:44:53;18.33;;;12.63;;
49366;SDS011;35245;52.026;8.540;2023-04-15T08:47:20;17.25;;;11.63;;
49366;SDS011;35245;52.026;8.540;2023-04-15T08:49:49;14.70;;;10.63;;
49366;SDS011;35245;52.026;8.540;2023-04-15T08:52:18;15.43;;;11.70;;
49366;SDS011;35245;52.026;8.540;2023-04-15T08:54:46;16.17;;;11.90;;
49366;SDS011;35245;52.026;8.540;2023-04-15T08:57:13;17.52;;;12.27;;
49366;SDS011;35245;52.026;8.540;2023-04-15T08:59:41;16.48;;;11.73;;
49366;SDS011;35245;52.026;8.540;2023-04-15T09:02:08;14.13;;;10.70;;
49366;SDS011;35245;52.026;8.540;2023-04-15T09:04:35;15.73;;;10.70;;
49366;SDS011;35245;52.026;8.540;2023-04-15T09:07:02;14.93;;;10.98;;
49366;SDS011;35245;52.026;8.540;2023-04-15T09:09:29;14.38;;;10.32;;
49366;SDS011;35245;52.026;8.540;2023-04-15T09:11:59;11.95;;;9.02;;
49366;SDS011;35245;52.026;8.540;2023-04-15T09:14:27;12.90;;;8.73;;
49366;SDS011;35245;52.026;8.540;2023-04-15T09:16:56;13.15;;;10.10;;
49366;SDS011;35245;52.026;8.540;2023-04-15T09:19:24;11.70;;;9.10;;
49366;SDS011;35245;52.026;8.540;2023-04-15T09:21:51;14.23;;;9.85;;
49366;SDS011;35245;52.026;8.540;2023-04-15T09:24:20;13.25;;;10.32;;
49366;SDS011;35245;52.026;8.540;2023-04-15T09:26:47;13.75;;;9.57;;
49366;SDS011;35245;52.026;8.540;2023-04-15T09:29:19;11.82;;;8.85;;
49366;SDS011;35245;52.026;8.540;2023-04-15T09:31:46;13.18;;;9.20;;
49366;SDS011;35245;52.026;8.540;2023-04-15T09:34:13;11.90;;;8.48;;
49366;SDS011;35245;52.026;8.540;2023-04-15T09:36:51;12.30;;;8.82;;
49366;SDS011;35245;52.026;8.540;2023-04-15T09:39:19;12.27;;;8.38;;
49366;SDS011;35245;52.026;8.540;2023-04-15T09:41:46;11.07;;;8.15;;
49366;SDS011;35245;52.026;8.540;2023-04-15T09:44:24;10.98;;;8.60;;
49366;SDS011;35245;52.026;8.540;2023-04-15T09:46:51;9.32;;;7.07;;
49366;SDS011;35245;52.026;8.540;2023-04-15T09:49:18;10.35;;;7.03;;
49366;SDS011;35245;52.026;8.540;2023-04-15T09:51:45;11.77;;;7.35;;
49366;SDS011;35245;52.026;8.540;2023-04-15T09:54:14;9.93;;;6.85;;
49366;SDS011;35245;52.026;8.540;2023-04-15T09:56:45;9.30;;;7.07;;
49366;SDS011;35245;52.026;8.540;2023-04-15T09:59:12;8.95;;;6.63;;
49366;SDS011;35245;52.026;8.540;2023-04-15T10:01:41;9.60;;;7.80;;
49366;SDS011;35245;52.026;8.540;2023-04-15T10:04:08;8.95;;;6.45;;
49366;SDS011;35245;52.026;8.540;2023-04-15T10:06:35;8.63;;;6.22;;
49366;SDS011;35245;52.026;8.540;2023-04-15T10:09:02;9.75;;;6.97;;
49366;SDS011;35245;52.026;8.540;2023-04-15T10:11:29;10.18;;;7.15;;
49366;SDS011;35245;52.026;8.540;2023-04-15T10:13:57;10.25;;;7.53;;
49366;SDS011;35245;52.026;8.540;2023-04-15T10:16:25;9.32;;;6.82;;
49366;SDS011;35245;52.026;8.540;2023-04-15T10:18:54;9.32;;;6.50;;
49366;SDS011;35245;52.026;8.540;2023-04-15T10:21:22;9.55;;;6.32;;
49366;SDS011;35245;52.026;8.540;2023-04-15T10:23:50;8.70;;;6.15;;
49366;SDS011;35245;52.026;8.540;2023-04-15T10:26:17;8.50;;;5.95;;
49366;SDS011;35245;52.026;8.540;2023-04-15T10:28:43;8.68;;;6.38;;
49366;SDS011;35245;52.026;8.540;2023-04-15T10:31:11;8.88;;;6.10;;
49366;SDS011;35245;52.026;8.540;2023-04-15T10:33:39;10.23;;;5.85;;
49366;SDS011;35245;52.026;8.540;2023-04-15T10:36:08;9.52;;;5.65;;
49366;SDS011;35245;52.026;8.540;2023-04-15T10:38:36;8.57;;;5.88;;
49366;SDS011;35245;52.026;8.540;2023-04-15T10:41:14;7.85;;;6.20;;
49366;SDS011;35245;52.026;8.540;2023-04-15T10:43:49;6.82;;;5.32;;
49366;SDS011;35245;52.026;8.540;2023-04-15T10:46:18;7.32;;;5.65;;
49366;SDS011;35245;52.026;8.540;2023-04-15T10:48:47;8.73;;;6.57;;
49366;SDS011;35245;52.026;8.540;2023-04-15T10:51:17;7.65;;;5.35;;
49366;SDS011;35245;52.026;8.540;2023-04-15T10:53:55;7.90;;;5.45;;
49366;SDS011;35245;52.026;8.540;2023-04-15T10:56:22;8.73;;;5.93;;
49366;SDS011;35245;52.026;8.540;2023-04-15T10:58:49;7.82;;;6.00;;
49366;SDS011;35245;52.026;8.540;2023-04-15T11:01:18;8.15;;;6.18;;
49366;SDS011;35245;52.026;8.540;2023-04-15T11:03:47;7.10;;;5.57;;
49366;SDS011;35245;52.026;8.540;2023-04-15T11:06:15;7.32;;;5.80;;
49366;SDS011;35245;52.026;8.540;2023-04-15T11:08:52;8.02;;;5.30;;
49366;SDS011;35245;52.026;8.540;2023-04-15T11:14:24;7.88;;;5.65;;
49366;SDS011;35245;52.026;8.540;2023-04-15T11:16:51;8.73;;;5.43;;
49366;SDS011;35245;52.026;8.540;2023-04-15T11:19:18;7.22;;;5.63;;
49366;SDS011;35245;52.026;8.540;2023-04-15T11:21:46;8.38;;;6.13;;
49366;SDS011;35245;52.026;8.540;2023-04-15T11:24:22;7.80;;;5.88;;
49366;SDS011;35245;52.026;8.540;2023-04-15T11:26:55;8.43;;;6.47;;
49366;SDS011;35245;52.026;8.540;2023-04-15T11:29:27;8.55;;;6.28;;
49366;SDS011;35245;52.026;8.540;2023-04-15T11:32:00;9.95;;;6.32;;
49366;SDS011;35245;52.026;8.540;2023-04-15T11:34:30;9.27;;;5.93;;
49366;SDS011;35245;52.026;8.540;2023-04-15T11:36:59;7.22;;;5.63;;
49366;SDS011;35245;52.026;8.540;2023-04-15T11:39:28;8.13;;;5.87;;
49366;SDS011;35245;52.026;8.540;2023-04-15T11:41:55;7.90;;;5.95;;
49366;SDS011;35245;52.026;8.540;2023-04-15T11:44:22;8.00;;;6.22;;
49366;SDS011;35245;52.026;8.540;2023-04-15T11:46:49;8.95;;;6.63;;
49366;SDS011;35245;52.026;8.540;2023-04-15T11:49:25;7.45;;;5.60;;
49366;SDS011;35245;52.026;8.540;2023-04-15T11:51:52;7.05;;;5.53;;
49366;SDS011;35245;52.026;8.540;2023-04-15T11:54:20;7.78;;;5.85;;
49366;SDS011;35245;52.026;8.540;2023-04-15T11:56:49;6.40;;;5.53;;
49366;SDS011;35245;52.026;8.540;2023-04-15T11:59:16;8.77;;;6.57;;
49366;SDS011;35245;52.026;8.540;2023-04-15T12:01:43;7.93;;;5.57;;
49366;SDS011;35245;52.026;8.540;2023-04-15T12:04:12;6.43;;;5.50;;
49366;SDS011;35245;52.026;8.540;2023-04-15T12:06:40;9.07;;;7.00;;
49366;SDS011;35245;52.026;8.540;2023-04-15T12:09:07;6.78;;;5.18;;
49366;SDS011;35245;52.026;8.540;2023-04-15T12:11:41;6.60;;;5.50;;
49366;SDS011;35245;52.026;8.540;2023-04-15T12:14:11;7.20;;;5.18;;
49366;SDS011;35245;52.026;8.540;2023-04-15T12:16:41;7.82;;;5.97;;
49366;SDS011;35245;52.026;8.540;2023-04-15T12:19:10;11.10;;;5.47;;
49366;SDS011;35245;52.026;8.540;2023-04-15T12:21:38;7.82;;;5.78;;
49366;SDS011;35245;52.026;8.540;2023-04-15T12:24:07;7.18;;;5.47;;
49366;SDS011;35245;52.026;8.540;2023-04-15T12:26:36;7.38;;;5.80;;
49366;SDS011;35245;52.026;8.540;2023-04-15T12:29:05;7.28;;;5.50;;
49366;SDS011;35245;52.026;8.540;2023-04-15T12:31:33;7.43;;;6.35;;
49366;SDS011;35245;52.026;8.540;2023-04-15T12:34:01;6.90;;;5.55;;
49366;SDS011;35245;52.026;8.540;2023-04-15T12:36:29;6.75;;;5.60;;
49366;SDS011;35245;52.026;8.540;2023-04-15T12:39:00;6.00;;;5.17;;
49366;SDS011;35245;52.026;8.540;2023-04-15T12:41:28;5.80;;;4.55;;
49366;SDS011;35245;52.026;8.540;2023-04-15T12:43:55;5.25;;;4.43;;
49366;SDS011;35245;52.026;8.540;2023-04-15T12:46:24;5.70;;;4.65;;
49366;SDS011;35245;52.026;8.540;2023-04-15T12:48:51;5.65;;;4.25;;
49366;SDS011;35245;52.026;8.540;2023-04-15T12:51:18;3.95;;;3.55;;
49366;SDS011;35245;52.026;8.540;2023-04-15T12:53:46;4.68;;;3.80;;
49366;SDS011;35245;52.026;8.540;2023-04-15T12:56:13;4.25;;;3.47;;
49366;SDS011;35245;52.026;8.540;2023-04-15T12:58:40;5.35;;;4.13;;
49366;SDS011;35245;52.026;8.540;2023-04-15T13:01:07;4.05;;;3.55;;
49366;SDS011;35245;52.026;8.540;2023-04-15T13:03:36;4.53;;;3.65;;
49366;SDS011;35245;52.026;8.540;2023-04-15T13:06:03;4.03;;;3.40;;
49366;SDS011;35245;52.026;8.540;2023-04-15T13:08:30;3.92;;;3.30;;
49366;SDS011;35245;52.026;8.540;2023-04-15T13:10:57;4.35;;;3.92;;
49366;SDS011;35245;52.026;8.540;2023-04-15T13:13:25;5.38;;;3.97;;
49366;SDS011;35245;52.026;8.540;2023-04-15T13:15:52;5.25;;;4.25;;
49366;SDS011;35245;52.026;8.540;2023-04-15T13:18:19;5.00;;;4.50;;
49366;SDS011;35245;52.026;8.540;2023-04-15T13:20:49;4.47;;;3.88;;
49366;SDS011;35245;52.026;8.540;2023-04-15T13:23:16;5.88;;;4.68;;
49366;SDS011;35245;52.026;8.540;2023-04-15T13:25:43;5.10;;;4.60;;
49366;SDS011;35245;52.026;8.540;2023-04-15T13:28:10;6.95;;;5.30;;
49366;SDS011;35245;52.026;8.540;2023-04-15T13:30:37;6.15;;;4.85;;
49366;SDS011;35245;52.026;8.540;2023-04-15T13:33:04;8.43;;;6.10;;
49366;SDS011;35245;52.026;8.540;2023-04-15T13:35:31;7.07;;;5.60;;
49366;SDS011;35245;52.026;8.540;2023-04-15T13:38:00;7.32;;;5.75;;
49366;SDS011;35245;52.026;8.540;2023-04-15T13:40:27;8.65;;;6.22;;
49366;SDS011;35245;52.026;8.540;2023-04-15T13:42:54;6.85;;;5.80;;
49366;SDS011;35245;52.026;8.540;2023-04-15T13:45:22;9.57;;;6.00;;
49366;SDS011;35245;52.026;8.540;2023-04-15T13:47:49;8.52;;;5.82;;
49366;SDS011;35245;52.026;8.540;2023-04-15T13:50:16;8.75;;;6.60;;
49366;SDS011;35245;52.026;8.540;2023-04-15T13:52:43;7.22;;;6.03;;
49366;SDS011;35245;52.026;8.540;2023-04-15T13:55:11;8.13;;;6.47;;
49366;SDS011;35245;52.026;8.540;2023-04-15T13:57:38;8.77;;;6.20;;
49366;SDS011;35245;52.026;8.540;2023-04-15T14:00:06;10.15;;;7.20;;
49366;SDS011;35245;52.026;8.540;2023-04-15T14:02:33;12.23;;;7.22;;
49366;SDS011;35245;52.026;8.540;2023-04-15T14:05:00;10.20;;;7.25;;
49366;SDS011;35245;52.026;8.540;2023-04-15T14:07:27;10.43;;;7.32;;
49366;SDS011;35245;52.026;8.540;2023-04-15T14:09:55;10.68;;;7.75;;
49366;SDS011;35245;52.026;8.540;2023-04-15T14:12:23;11.00;;;8.45;;
49366;SDS011;35245;52.026;8.540;2023-04-15T14:14:50;11.13;;;7.90;;
49366;SDS011;35245;52.026;8.540;2023-04-15T14:17:17;10.77;;;8.70;;
49366;SDS011;35245;52.026;8.540;2023-04-15T14:19:44;14.40;;;9.27;;
49366;SDS011;35245;52.026;8.540;2023-04-15T14:22:11;13.40;;;10.27;;
49366;SDS011;35245;52.026;8.540;2023-04-15T14:24:37;11.50;;;8.73;;
49366;SDS011;35245;52.026;8.540;2023-04-15T14:27:05;12.10;;;9.77;;
49366;SDS011;35245;52.026;8.540;2023-04-15T14:29:34;13.32;;;10.55;;
49366;SDS011;35245;52.026;8.540;2023-04-15T14:32:01;12.30;;;10.60;;
49366;SDS011;35245;52.026;8.540;2023-04-15T14:34:28;13.50;;;10.07;;
49366;SDS011;35245;52.026;8.540;2023-04-15T14:36:55;13.60;;;10.38;;
49366;SDS011;35245;52.026;8.540;2023-04-15T14:39:22;12.50;;;9.98;;